Paducah, Texas
Current Conditions -  °F | °C
As of 4:53 AM on Sunday 23 Nov 2014 (Local Time) from KCDS Reporting Station
Clear Clear  
Wind Chill: 41°   Ceiling: Unl
Heat Index: 46°   Visibility: 10mi
Dew Point: 43°   Wind: 10mph
Humidity: 89%   Direction: 190°S
Pressure: 29.47"   Gusts: NA
Location:  34.01°N, 100.3°W
Report Text: KCDS 231053Z AUTO 19009KT 10SM CLR 08/06 A2947 RMK AO2 SLP972 T00780061
Loading
Personal Weather Stations






























Interactive Weather Map New forecast layout! Learn more

10-Day Weather Forecast

Advertisements
Track Severe Weather on mobile